<?xml version="1.0" encoding="UTF-8" standalone="no" ?>
<gpx xmlns="http://www.topografix.com/GPX/1/1" xmlns:xsi="http://www.w3.org/2001/XMLSchema-instance" xsi:schemaLocation="http://www.topografix.com/GPX/1/1 http://www.topografix.com/GPX/1/1/gpx.xsd" version="1.1" creator="VisuGPX - https://www.visugpx.com">
  <metadata>
    <name>Labenne Océan</name>
    <desc><![CDATA[balade sur notre lieu de vacances]]></desc>
  </metadata>
  <trk>
    <name><![CDATA[Labenne Océan_1]]></name>
    <trkseg>
      <trkpt lat="43.59288" lon="-1.46681">
        <ele>5</ele>
        <time>2012-06-17T09:32:21Z</time>
      </trkpt>
      <trkpt lat="43.59288" lon="-1.46681">
        <ele>63.4</ele>
        <time>2012-06-17T09:32:23Z</time>
      </trkpt>
      <trkpt lat="43.59278" lon="-1.46673">
        <ele>56.7</ele>
        <time>2012-06-17T09:32:28Z</time>
      </trkpt>
      <trkpt lat="43.59295" lon="-1.4666">
        <ele>56.3</ele>
        <time>2012-06-17T09:32:30Z</time>
      </trkpt>
      <trkpt lat="43.59303" lon="-1.46657">
        <ele>42.6</ele>
        <time>2012-06-17T09:32:41Z</time>
      </trkpt>
      <trkpt lat="43.5931" lon="-1.46654">
        <ele>46.2</ele>
        <time>2012-06-17T09:32:46Z</time>
      </trkpt>
      <trkpt lat="43.59323" lon="-1.46647">
        <ele>50.7</ele>
        <time>2012-06-17T09:33:02Z</time>
      </trkpt>
      <trkpt lat="43.5933" lon="-1.46645">
        <ele>50.2</ele>
        <time>2012-06-17T09:33:06Z</time>
      </trkpt>
      <trkpt lat="43.59337" lon="-1.46646">
        <ele>50.8</ele>
        <time>2012-06-17T09:33:11Z</time>
      </trkpt>
      <trkpt lat="43.59351" lon="-1.46641">
        <ele>53</ele>
        <time>2012-06-17T09:33:30Z</time>
      </trkpt>
      <trkpt lat="43.59363" lon="-1.46632">
        <ele>46.9</ele>
        <time>2012-06-17T09:33:37Z</time>
      </trkpt>
      <trkpt lat="43.5937" lon="-1.4663">
        <ele>52.4</ele>
        <time>2012-06-17T09:33:39Z</time>
      </trkpt>
      <trkpt lat="43.59377" lon="-1.46627">
        <ele>54</ele>
        <time>2012-06-17T09:33:45Z</time>
      </trkpt>
      <trkpt lat="43.59391" lon="-1.46625">
        <ele>54.6</ele>
        <time>2012-06-17T09:34:00Z</time>
      </trkpt>
      <trkpt lat="43.59399" lon="-1.46623">
        <ele>57</ele>
        <time>2012-06-17T09:34:04Z</time>
      </trkpt>
      <trkpt lat="43.59418" lon="-1.46617">
        <ele>55</ele>
        <time>2012-06-17T09:34:19Z</time>
      </trkpt>
      <trkpt lat="43.59426" lon="-1.46615">
        <ele>53.2</ele>
        <time>2012-06-17T09:34:23Z</time>
      </trkpt>
      <trkpt lat="43.5944" lon="-1.46612">
        <ele>52.9</ele>
        <time>2012-06-17T09:34:34Z</time>
      </trkpt>
      <trkpt lat="43.59446" lon="-1.46608">
        <ele>52.5</ele>
        <time>2012-06-17T09:34:39Z</time>
      </trkpt>
      <trkpt lat="43.59453" lon="-1.46606">
        <ele>52.9</ele>
        <time>2012-06-17T09:34:43Z</time>
      </trkpt>
      <trkpt lat="43.5946" lon="-1.46604">
        <ele>54.5</ele>
        <time>2012-06-17T09:34:47Z</time>
      </trkpt>
      <trkpt lat="43.59467" lon="-1.46602">
        <ele>53.5</ele>
        <time>2012-06-17T09:34:50Z</time>
      </trkpt>
      <trkpt lat="43.59474" lon="-1.46599">
        <ele>57.1</ele>
        <time>2012-06-17T09:34:55Z</time>
      </trkpt>
      <trkpt lat="43.5948" lon="-1.46597">
        <ele>60</ele>
        <time>2012-06-17T09:35:09Z</time>
      </trkpt>
      <trkpt lat="43.59493" lon="-1.46589">
        <ele>59.9</ele>
        <time>2012-06-17T09:35:19Z</time>
      </trkpt>
      <trkpt lat="43.59499" lon="-1.46585">
        <ele>55.7</ele>
        <time>2012-06-17T09:35:23Z</time>
      </trkpt>
      <trkpt lat="43.59505" lon="-1.4658">
        <ele>53.4</ele>
        <time>2012-06-17T09:35:27Z</time>
      </trkpt>
      <trkpt lat="43.5952" lon="-1.46574">
        <ele>54.8</ele>
        <time>2012-06-17T09:35:35Z</time>
      </trkpt>
      <trkpt lat="43.59534" lon="-1.46567">
        <ele>56.3</ele>
        <time>2012-06-17T09:35:47Z</time>
      </trkpt>
      <trkpt lat="43.5954" lon="-1.46562">
        <ele>56.5</ele>
        <time>2012-06-17T09:35:51Z</time>
      </trkpt>
      <trkpt lat="43.59547" lon="-1.46559">
        <ele>57.1</ele>
        <time>2012-06-17T09:35:57Z</time>
      </trkpt>
      <trkpt lat="43.59555" lon="-1.46558">
        <ele>56</ele>
        <time>2012-06-17T09:36:00Z</time>
      </trkpt>
      <trkpt lat="43.59561" lon="-1.46557">
        <ele>55.4</ele>
        <time>2012-06-17T09:36:05Z</time>
      </trkpt>
      <trkpt lat="43.59573" lon="-1.46551">
        <ele>54.5</ele>
        <time>2012-06-17T09:36:14Z</time>
      </trkpt>
      <trkpt lat="43.59578" lon="-1.46545">
        <ele>55.4</ele>
        <time>2012-06-17T09:36:20Z</time>
      </trkpt>
      <trkpt lat="43.59591" lon="-1.46538">
        <ele>55.2</ele>
        <time>2012-06-17T09:36:30Z</time>
      </trkpt>
      <trkpt lat="43.59597" lon="-1.46534">
        <ele>54.6</ele>
        <time>2012-06-17T09:36:35Z</time>
      </trkpt>
      <trkpt lat="43.59603" lon="-1.46528">
        <ele>55.8</ele>
        <time>2012-06-17T09:36:39Z</time>
      </trkpt>
      <trkpt lat="43.59608" lon="-1.46522">
        <ele>55.2</ele>
        <time>2012-06-17T09:36:43Z</time>
      </trkpt>
      <trkpt lat="43.59615" lon="-1.46518">
        <ele>54.7</ele>
        <time>2012-06-17T09:36:49Z</time>
      </trkpt>
      <trkpt lat="43.59621" lon="-1.46518">
        <ele>54.3</ele>
        <time>2012-06-17T09:36:53Z</time>
      </trkpt>
      <trkpt lat="43.59627" lon="-1.46515">
        <ele>54.7</ele>
        <time>2012-06-17T09:36:57Z</time>
      </trkpt>
      <trkpt lat="43.59641" lon="-1.46509">
        <ele>52.2</ele>
        <time>2012-06-17T09:37:05Z</time>
      </trkpt>
      <trkpt lat="43.59646" lon="-1.46504">
        <ele>52.9</ele>
        <time>2012-06-17T09:37:10Z</time>
      </trkpt>
      <trkpt lat="43.59642" lon="-1.46495">
        <ele>54.1</ele>
        <time>2012-06-17T09:37:17Z</time>
      </trkpt>
      <trkpt lat="43.59632" lon="-1.46481">
        <ele>53.4</ele>
        <time>2012-06-17T09:37:23Z</time>
      </trkpt>
      <trkpt lat="43.59622" lon="-1.46466">
        <ele>53.4</ele>
        <time>2012-06-17T09:37:32Z</time>
      </trkpt>
      <trkpt lat="43.59619" lon="-1.46458">
        <ele>54.3</ele>
        <time>2012-06-17T09:37:37Z</time>
      </trkpt>
      <trkpt lat="43.59615" lon="-1.46449">
        <ele>56.7</ele>
        <time>2012-06-17T09:37:42Z</time>
      </trkpt>
      <trkpt lat="43.59611" lon="-1.46431">
        <ele>56.3</ele>
        <time>2012-06-17T09:37:53Z</time>
      </trkpt>
      <trkpt lat="43.59606" lon="-1.46413">
        <ele>56.8</ele>
        <time>2012-06-17T09:38:02Z</time>
      </trkpt>
      <trkpt lat="43.59596" lon="-1.46389">
        <ele>56.3</ele>
        <time>2012-06-17T09:38:15Z</time>
      </trkpt>
      <trkpt lat="43.59598" lon="-1.4638">
        <ele>57.8</ele>
        <time>2012-06-17T09:38:22Z</time>
      </trkpt>
      <trkpt lat="43.59601" lon="-1.46371">
        <ele>59.5</ele>
        <time>2012-06-17T09:38:27Z</time>
      </trkpt>
      <trkpt lat="43.59603" lon="-1.46362">
        <ele>60.3</ele>
        <time>2012-06-17T09:38:33Z</time>
      </trkpt>
      <trkpt lat="43.59603" lon="-1.46353">
        <ele>60</ele>
        <time>2012-06-17T09:38:39Z</time>
      </trkpt>
      <trkpt lat="43.59609" lon="-1.46341">
        <ele>56.1</ele>
        <time>2012-06-17T09:38:53Z</time>
      </trkpt>
      <trkpt lat="43.59615" lon="-1.46337">
        <ele>55.9</ele>
        <time>2012-06-17T09:39:05Z</time>
      </trkpt>
      <trkpt lat="43.59601" lon="-1.46336">
        <ele>53.2</ele>
        <time>2012-06-17T09:40:03Z</time>
      </trkpt>
      <trkpt lat="43.59593" lon="-1.46335">
        <ele>50.1</ele>
        <time>2012-06-17T09:40:09Z</time>
      </trkpt>
      <trkpt lat="43.59587" lon="-1.46341">
        <ele>43.7</ele>
        <time>2012-06-17T09:40:17Z</time>
      </trkpt>
      <trkpt lat="43.59588" lon="-1.46358">
        <ele>43.1</ele>
        <time>2012-06-17T09:40:37Z</time>
      </trkpt>
      <trkpt lat="43.59592" lon="-1.46367">
        <ele>41.3</ele>
        <time>2012-06-17T09:49:12Z</time>
      </trkpt>
      <trkpt lat="43.59596" lon="-1.46384">
        <ele>46.9</ele>
        <time>2012-06-17T09:49:22Z</time>
      </trkpt>
      <trkpt lat="43.59602" lon="-1.46404">
        <ele>47.4</ele>
        <time>2012-06-17T09:49:36Z</time>
      </trkpt>
      <trkpt lat="43.59609" lon="-1.46422">
        <ele>45.9</ele>
        <time>2012-06-17T09:49:49Z</time>
      </trkpt>
      <trkpt lat="43.59611" lon="-1.46431">
        <ele>45.3</ele>
        <time>2012-06-17T09:49:57Z</time>
      </trkpt>
      <trkpt lat="43.59614" lon="-1.46439">
        <ele>45.8</ele>
        <time>2012-06-17T09:50:01Z</time>
      </trkpt>
      <trkpt lat="43.59618" lon="-1.46446">
        <ele>46.2</ele>
        <time>2012-06-17T09:50:05Z</time>
      </trkpt>
      <trkpt lat="43.59624" lon="-1.46462">
        <ele>34.1</ele>
        <time>2012-06-17T09:50:19Z</time>
      </trkpt>
      <trkpt lat="43.59627" lon="-1.4647">
        <ele>33.7</ele>
        <time>2012-06-17T09:50:26Z</time>
      </trkpt>
      <trkpt lat="43.59629" lon="-1.46479">
        <ele>33.5</ele>
        <time>2012-06-17T09:50:32Z</time>
      </trkpt>
      <trkpt lat="43.59621" lon="-1.46493">
        <ele>36.8</ele>
        <time>2012-06-17T09:50:40Z</time>
      </trkpt>
      <trkpt lat="43.59615" lon="-1.465">
        <ele>32.3</ele>
        <time>2012-06-17T09:50:46Z</time>
      </trkpt>
      <trkpt lat="43.59609" lon="-1.46505">
        <ele>34.6</ele>
        <time>2012-06-17T09:50:51Z</time>
      </trkpt>
      <trkpt lat="43.59603" lon="-1.4651">
        <ele>38.8</ele>
        <time>2012-06-17T09:50:56Z</time>
      </trkpt>
      <trkpt lat="43.5959" lon="-1.46515">
        <ele>35.7</ele>
        <time>2012-06-17T09:51:08Z</time>
      </trkpt>
      <trkpt lat="43.59583" lon="-1.46519">
        <ele>32.7</ele>
        <time>2012-06-17T09:51:13Z</time>
      </trkpt>
      <trkpt lat="43.5957" lon="-1.46524">
        <ele>27.4</ele>
        <time>2012-06-17T09:51:28Z</time>
      </trkpt>
      <trkpt lat="43.59564" lon="-1.46526">
        <ele>27.5</ele>
        <time>2012-06-17T09:51:32Z</time>
      </trkpt>
      <trkpt lat="43.59558" lon="-1.46528">
        <ele>30.1</ele>
        <time>2012-06-17T09:51:35Z</time>
      </trkpt>
      <trkpt lat="43.59551" lon="-1.46531">
        <ele>24.6</ele>
        <time>2012-06-17T09:51:41Z</time>
      </trkpt>
      <trkpt lat="43.59545" lon="-1.46535">
        <ele>25.8</ele>
        <time>2012-06-17T09:51:47Z</time>
      </trkpt>
      <trkpt lat="43.59538" lon="-1.46538">
        <ele>24.2</ele>
        <time>2012-06-17T09:51:52Z</time>
      </trkpt>
      <trkpt lat="43.59531" lon="-1.46541">
        <ele>23.8</ele>
        <time>2012-06-17T09:51:57Z</time>
      </trkpt>
      <trkpt lat="43.59518" lon="-1.46549">
        <ele>24.9</ele>
        <time>2012-06-17T09:52:08Z</time>
      </trkpt>
      <trkpt lat="43.59512" lon="-1.46554">
        <ele>26.4</ele>
        <time>2012-06-17T09:52:18Z</time>
      </trkpt>
      <trkpt lat="43.59498" lon="-1.46561">
        <ele>27.4</ele>
        <time>2012-06-17T09:52:29Z</time>
      </trkpt>
      <trkpt lat="43.59491" lon="-1.46563">
        <ele>27.8</ele>
        <time>2012-06-17T09:52:33Z</time>
      </trkpt>
      <trkpt lat="43.59483" lon="-1.46566">
        <ele>26.4</ele>
        <time>2012-06-17T09:52:37Z</time>
      </trkpt>
      <trkpt lat="43.59477" lon="-1.4657">
        <ele>24.9</ele>
        <time>2012-06-17T09:52:42Z</time>
      </trkpt>
      <trkpt lat="43.5947" lon="-1.46573">
        <ele>26.1</ele>
        <time>2012-06-17T09:52:48Z</time>
      </trkpt>
      <trkpt lat="43.59464" lon="-1.46578">
        <ele>28.4</ele>
        <time>2012-06-17T09:52:53Z</time>
      </trkpt>
      <trkpt lat="43.59451" lon="-1.46587">
        <ele>29.9</ele>
        <time>2012-06-17T09:53:03Z</time>
      </trkpt>
      <trkpt lat="43.59444" lon="-1.46589">
        <ele>31.2</ele>
        <time>2012-06-17T09:53:10Z</time>
      </trkpt>
      <trkpt lat="43.59437" lon="-1.46591">
        <ele>33.2</ele>
        <time>2012-06-17T09:53:15Z</time>
      </trkpt>
      <trkpt lat="43.59424" lon="-1.46596">
        <ele>32.6</ele>
        <time>2012-06-17T09:53:25Z</time>
      </trkpt>
      <trkpt lat="43.59418" lon="-1.46599">
        <ele>38.2</ele>
        <time>2012-06-17T09:53:29Z</time>
      </trkpt>
      <trkpt lat="43.59411" lon="-1.46601">
        <ele>38.3</ele>
        <time>2012-06-17T09:53:34Z</time>
      </trkpt>
      <trkpt lat="43.59396" lon="-1.46604">
        <ele>40.6</ele>
        <time>2012-06-17T09:53:44Z</time>
      </trkpt>
      <trkpt lat="43.5939" lon="-1.46604">
        <ele>42.4</ele>
        <time>2012-06-17T09:53:49Z</time>
      </trkpt>
      <trkpt lat="43.59383" lon="-1.46606">
        <ele>40.5</ele>
        <time>2012-06-17T09:53:56Z</time>
      </trkpt>
      <trkpt lat="43.59377" lon="-1.4661">
        <ele>39.5</ele>
        <time>2012-06-17T09:54:03Z</time>
      </trkpt>
      <trkpt lat="43.59364" lon="-1.46616">
        <ele>37.2</ele>
        <time>2012-06-17T09:54:11Z</time>
      </trkpt>
      <trkpt lat="43.59357" lon="-1.46621">
        <ele>39.8</ele>
        <time>2012-06-17T09:54:17Z</time>
      </trkpt>
      <trkpt lat="43.59351" lon="-1.46623">
        <ele>38</ele>
        <time>2012-06-17T09:54:22Z</time>
      </trkpt>
      <trkpt lat="43.59337" lon="-1.46625">
        <ele>34.9</ele>
        <time>2012-06-17T09:54:34Z</time>
      </trkpt>
      <trkpt lat="43.59331" lon="-1.46627">
        <ele>32.9</ele>
        <time>2012-06-17T09:54:40Z</time>
      </trkpt>
      <trkpt lat="43.59324" lon="-1.46628">
        <ele>32.2</ele>
        <time>2012-06-17T09:54:48Z</time>
      </trkpt>
      <trkpt lat="43.59311" lon="-1.46633">
        <ele>32</ele>
        <time>2012-06-17T09:55:04Z</time>
      </trkpt>
      <trkpt lat="43.59305" lon="-1.46637">
        <ele>34.8</ele>
        <time>2012-06-17T09:55:08Z</time>
      </trkpt>
      <trkpt lat="43.59293" lon="-1.46646">
        <ele>32.9</ele>
        <time>2012-06-17T09:55:17Z</time>
      </trkpt>
      <trkpt lat="43.59286" lon="-1.46652">
        <ele>34.6</ele>
        <time>2012-06-17T09:55:20Z</time>
      </trkpt>
      <trkpt lat="43.59281" lon="-1.4666">
        <ele>37.8</ele>
        <time>2012-06-17T09:55:26Z</time>
      </trkpt>
      <trkpt lat="43.59271" lon="-1.46674">
        <ele>37.6</ele>
        <time>2012-06-17T09:55:36Z</time>
      </trkpt>
      <trkpt lat="43.59264" lon="-1.4669">
        <ele>37.9</ele>
        <time>2012-06-17T09:55:50Z</time>
      </trkpt>
      <trkpt lat="43.59258" lon="-1.46694">
        <ele>39.8</ele>
        <time>2012-06-17T09:55:55Z</time>
      </trkpt>
      <trkpt lat="43.59254" lon="-1.46701">
        <ele>38.7</ele>
        <time>2012-06-17T09:56:00Z</time>
      </trkpt>
      <trkpt lat="43.59246" lon="-1.46715">
        <ele>42.6</ele>
        <time>2012-06-17T09:56:13Z</time>
      </trkpt>
      <trkpt lat="43.59242" lon="-1.46724">
        <ele>45.2</ele>
        <time>2012-06-17T09:56:18Z</time>
      </trkpt>
      <trkpt lat="43.59238" lon="-1.46733">
        <ele>45.7</ele>
        <time>2012-06-17T09:56:23Z</time>
      </trkpt>
      <trkpt lat="43.59234" lon="-1.46741">
        <ele>47.4</ele>
        <time>2012-06-17T09:56:28Z</time>
      </trkpt>
      <trkpt lat="43.59229" lon="-1.46748">
        <ele>47.1</ele>
        <time>2012-06-17T09:56:34Z</time>
      </trkpt>
      <trkpt lat="43.5922" lon="-1.46762">
        <ele>41.8</ele>
        <time>2012-06-17T09:56:44Z</time>
      </trkpt>
      <trkpt lat="43.59215" lon="-1.4677">
        <ele>43.4</ele>
        <time>2012-06-17T09:56:49Z</time>
      </trkpt>
      <trkpt lat="43.59207" lon="-1.46784">
        <ele>46.8</ele>
        <time>2012-06-17T09:57:00Z</time>
      </trkpt>
      <trkpt lat="43.59201" lon="-1.46801">
        <ele>41.2</ele>
        <time>2012-06-17T09:57:12Z</time>
      </trkpt>
      <trkpt lat="43.59196" lon="-1.46808">
        <ele>43.5</ele>
        <time>2012-06-17T09:57:18Z</time>
      </trkpt>
      <trkpt lat="43.59193" lon="-1.46823">
        <ele>40.2</ele>
        <time>2012-06-17T09:57:52Z</time>
      </trkpt>
      <trkpt lat="43.59194" lon="-1.46832">
        <ele>41.3</ele>
        <time>2012-06-17T09:57:57Z</time>
      </trkpt>
      <trkpt lat="43.59194" lon="-1.46832">
        <ele>5</ele>
        <time>2012-06-17T10:08:36Z</time>
      </trkpt>
    </trkseg>
  </trk>
</gpx>